createdAt,value
2022-08-04T00:00:17.192Z,148304.88
2022-08-04T00:03:02.297Z,148271.84
2022-08-04T00:05:36.556Z,148209.47
2022-08-04T00:08:12.297Z,148251.06
2022-08-04T00:10:40.495Z,148235.13
2022-08-04T00:13:09.439Z,148224.13
2022-08-04T00:15:41.028Z,148221.66
2022-08-04T00:18:10.054Z,148218.00
2022-08-04T00:20:42.447Z,148116.41
2022-08-04T00:23:18.217Z,148207.00
2022-08-04T00:25:57.392Z,148166.63
2022-08-04T00:28:24.912Z,148150.72
2022-08-04T00:30:53.807Z,148143.31
2022-08-04T00:33:21.931Z,148150.72
2022-08-04T00:35:50.118Z,148112.72
2022-08-04T00:38:18.361Z,148151.94
2022-08-04T00:41:00.462Z,148149.47
2022-08-04T00:43:45.958Z,148129.88
2022-08-04T00:47:00.444Z,148138.44
2022-08-04T00:49:46.202Z,148117.66
2022-08-04T00:52:33.768Z,148101.75
2022-08-04T00:55:28.821Z,148096.84
2022-08-04T00:58:26.692Z,148095.63
2022-08-04T01:01:02.326Z,148079.72
2022-08-04T01:03:41.241Z,148074.81
2022-08-04T01:06:29.218Z,148062.63
2022-08-04T01:09:07.828Z,148057.69
2022-08-04T01:12:16.561Z,148047.91
2022-08-04T01:14:49.608Z,148050.38
2022-08-04T01:17:19.763Z,148023.47
2022-08-04T01:20:07.628Z,147985.56
2022-08-04T01:22:34.588Z,148011.22
2022-08-04T01:25:35.896Z,148008.78
2022-08-04T01:28:30.990Z,148035.72
2022-08-04T01:31:07.258Z,147995.34
2022-08-04T01:34:03.183Z,147989.25
2022-08-04T01:36:35.459Z,147969.66
2022-08-04T01:39:24.875Z,147948.88
2022-08-04T01:42:42.175Z,147989.25
2022-08-04T01:45:11.671Z,147968.44
2022-08-04T01:47:43.525Z,147973.31
2022-08-04T01:50:13.433Z,147984.31
2022-08-04T01:52:43.955Z,147891.34
2022-08-04T01:55:16.165Z,147942.75
2022-08-04T01:57:49.321Z,147932.91
2022-08-04T02:00:22.735Z,147879.16
2022-08-04T02:02:51.281Z,147913.38
2022-08-04T02:05:21.186Z,147907.28
2022-08-04T02:07:54.245Z,147915.84
2022-08-04T02:10:30.752Z,147913.38
2022-08-04T02:13:28.750Z,147892.56
2022-08-04T02:16:18.729Z,147868.13
2022-08-04T02:19:16.495Z,147864.44
2022-08-04T02:21:47.507Z,147849.78
2022-08-04T02:24:18.573Z,147840.00
2022-08-04T02:26:50.173Z,147825.34
2022-08-04T02:29:20.913Z,147840.00
2022-08-04T02:32:03.277Z,147813.13
2022-08-04T02:34:59.538Z,147822.88
2022-08-04T02:37:27.499Z,147815.59
2022-08-04T02:39:58.421Z,147815.59
2022-08-04T02:42:28.716Z,147809.44
2022-08-04T02:44:58.637Z,147800.88
2022-08-04T02:48:28.783Z,147802.13
2022-08-04T02:50:28.862Z,147782.53
2022-08-04T02:53:00.502Z,147794.78
2022-08-04T02:55:29.334Z,147744.66
2022-08-04T02:57:59.313Z,147789.91
2022-08-04T03:00:26.618Z,147783.81
2022-08-04T03:02:59.733Z,147798.47
2022-08-04T03:05:32.464Z,147635.84
2022-08-04T03:08:28.623Z,147769.16
2022-08-04T03:11:11.151Z,147766.69
2022-08-04T03:14:15.420Z,147769.16
2022-08-04T03:17:07.032Z,147747.13
2022-08-04T03:19:36.717Z,147756.91
2022-08-04T03:22:21.669Z,147728.81
2022-08-04T03:25:04.029Z,147707.97
2022-08-04T03:28:09.874Z,147725.13
2022-08-04T03:30:57.153Z,147727.53
2022-08-04T03:33:45.940Z,147725.13
2022-08-04T03:36:36.180Z,147690.84
2022-08-04T03:39:47.828Z,147688.44
2022-08-04T03:42:49.188Z,147685.97
2022-08-04T03:45:56.531Z,147673.78
2022-08-04T03:48:51.305Z,147692.09
2022-08-04T03:51:52.824Z,147710.44
2022-08-04T03:54:38.682Z,147698.19
2022-08-04T03:57:25.023Z,147661.53
2022-08-04T04:00:21.301Z,147690.84
2022-08-04T04:03:04.093Z,147656.66
2022-08-04T04:05:59.027Z,147678.66
2022-08-04T04:08:26.891Z,147709.19
2022-08-04T04:11:20.149Z,147707.97
2022-08-04T04:13:58.336Z,147668.88
2022-08-04T04:16:34.314Z,147693.31
2022-08-04T04:19:22.825Z,147693.31
2022-08-04T04:22:43.818Z,147699.41
2022-08-04T04:25:10.802Z,147679.88
2022-08-04T04:27:49.630Z,147687.22
2022-08-04T04:30:20.547Z,147683.53
2022-08-04T04:33:07.785Z,147678.66
2022-08-04T04:35:50.567Z,147667.63
2022-08-04T04:38:17.504Z,147693.31
2022-08-04T04:41:21.317Z,147716.53
2022-08-04T04:44:02.131Z,147717.78
2022-08-04T04:46:45.938Z,147722.66
2022-08-04T04:49:25.686Z,147732.47
2022-08-04T04:52:30.863Z,147749.56
2022-08-04T04:55:10.222Z,147742.25
2022-08-04T04:57:54.005Z,147736.13
2022-08-04T05:00:30.003Z,147787.47
2022-08-04T05:03:31.831Z,147797.25
2022-08-04T05:06:15.107Z,147851.00
2022-08-04T05:08:58.957Z,147857.16
2022-08-04T05:11:44.830Z,147871.81
2022-08-04T05:14:37.708Z,147923.16
2022-08-04T05:17:18.524Z,147950.09
2022-08-04T05:19:55.774Z,147970.91
2022-08-04T05:22:37.840Z,147970.91
2022-08-04T05:25:12.429Z,147935.38
2022-08-04T05:27:51.683Z,147957.44
2022-08-04T05:30:20.080Z,147989.25
2022-08-04T05:32:59.105Z,148019.78
2022-08-04T05:36:18.056Z,148038.13
2022-08-04T05:38:36.147Z,148056.47
2022-08-04T05:41:04.109Z,148023.47
2022-08-04T05:43:31.863Z,148104.19
2022-08-04T05:45:59.693Z,148165.41
2022-08-04T05:48:27.688Z,148189.84
2022-08-04T05:51:00.573Z,148231.44
2022-08-04T05:53:28.857Z,148187.44
2022-08-04T05:55:59.678Z,148208.22
2022-08-04T05:58:30.363Z,148307.34
2022-08-04T06:01:01.506Z,148289.00
2022-08-04T06:03:31.375Z,148307.34
2022-08-04T06:05:59.924Z,148312.22
2022-08-04T06:08:27.097Z,148318.34
2022-08-04T06:10:57.425Z,148336.69
2022-08-04T06:13:48.651Z,148353.91
2022-08-04T06:16:30.217Z,148368.56
2022-08-04T06:20:01.047Z,148405.28
2022-08-04T06:21:56.716Z,148383.25
2022-08-04T06:24:26.525Z,148444.50
2022-08-04T06:26:54.960Z,148422.44
2022-08-04T06:29:35.973Z,148503.22
2022-08-04T06:32:27.053Z,148544.94
2022-08-04T06:35:04.789Z,148592.69
2022-08-04T06:37:43.179Z,148598.78
2022-08-04T06:40:29.642Z,148613.47
2022-08-04T06:42:58.009Z,148696.81
2022-08-04T06:45:26.759Z,148667.38
2022-08-04T06:47:54.963Z,148689.44
2022-08-04T06:51:27.185Z,148736.03
2022-08-04T06:53:10.178Z,148765.47
2022-08-04T06:55:38.537Z,148789.94
2022-08-04T06:58:07.350Z,148812.00
2022-08-04T07:00:37.860Z,148900.25
2022-08-04T07:03:07.059Z,148964.03
2022-08-04T07:05:35.868Z,148971.34
2022-08-04T07:08:04.516Z,149006.91
2022-08-04T07:10:31.882Z,149069.44
2022-08-04T07:13:00.390Z,149076.78
2022-08-04T07:15:28.396Z,149154.09
2022-08-04T07:17:59.972Z,149118.50
2022-08-04T07:20:34.979Z,149128.31
2022-08-04T07:23:05.376Z,149201.91
2022-08-04T07:25:59.954Z,149226.44
2022-08-04T07:28:22.726Z,149281.69
2022-08-04T07:30:50.266Z,149305.00
2022-08-04T07:33:18.509Z,149332.00
2022-08-04T07:36:08.328Z,149366.31
2022-08-04T07:38:37.959Z,149412.94
2022-08-04T07:41:36.669Z,149467.00
2022-08-04T07:44:04.785Z,149506.28
2022-08-04T07:46:32.225Z,149498.91
2022-08-04T07:49:02.906Z,149543.09
2022-08-04T07:51:31.151Z,149602.03
2022-08-04T07:54:00.203Z,149685.50
2022-08-04T07:56:28.357Z,149730.94
2022-08-04T07:58:55.929Z,149798.53
2022-08-04T08:01:24.494Z,149801.00
2022-08-04T08:03:53.678Z,149862.41
2022-08-04T08:06:32.956Z,149904.22
2022-08-04T08:09:12.969Z,149931.25
2022-08-04T08:12:35.444Z,149960.69
2022-08-04T08:14:35.895Z,149941.06
2022-08-04T08:17:05.758Z,150029.50
2022-08-04T08:19:34.678Z,150051.69
2022-08-04T08:22:02.472Z,150097.16
2022-08-04T08:24:31.804Z,150076.25
2022-08-04T08:27:00.188Z,150098.38
2022-08-04T08:29:29.434Z,150130.31
2022-08-04T08:32:01.447Z,150157.38
2022-08-04T08:34:31.939Z,150173.31
2022-08-04T08:37:13.914Z,150162.28
2022-08-04T08:39:50.432Z,150215.16
2022-08-04T08:42:48.049Z,150245.91
2022-08-04T08:45:39.379Z,150228.69
2022-08-04T08:48:47.983Z,150296.28
2022-08-04T08:51:39.485Z,150323.34
2022-08-04T08:54:44.254Z,150361.50
2022-08-04T08:57:29.830Z,150329.53
2022-08-04T09:00:09.170Z,150360.28
2022-08-04T09:02:48.372Z,150354.16
2022-08-04T09:06:04.170Z,150413.13
2022-08-04T09:08:55.326Z,150408.22
2022-08-04T09:11:26.074Z,150473.44
2022-08-04T09:14:19.400Z,150477.13
2022-08-04T09:16:52.046Z,150520.19
2022-08-04T09:19:38.831Z,150429.13
2022-08-04T09:22:16.345Z,150491.88
2022-08-04T09:25:06.470Z,150548.47
2022-08-04T09:27:38.843Z,150522.63
2022-08-04T09:30:09.286Z,150585.38
2022-08-04T09:32:39.654Z,150607.50
2022-08-04T09:35:19.471Z,150633.38
2022-08-04T09:38:09.601Z,150651.84
2022-08-04T09:40:53.292Z,150681.34
2022-08-04T09:44:43.178Z,150685.03
2022-08-04T09:46:53.486Z,150750.28
2022-08-04T09:49:31.824Z,150696.16
2022-08-04T09:52:11.663Z,150751.56
2022-08-04T09:54:59.011Z,150827.84
2022-08-04T09:57:45.666Z,150853.69
2022-08-04T10:00:16.900Z,150788.47
2022-08-04T10:02:52.048Z,150878.34
2022-08-04T10:05:26.339Z,150863.53
2022-08-04T10:08:36.038Z,150787.22
2022-08-04T10:11:21.331Z,150829.03
2022-08-04T10:14:10.290Z,150870.88
2022-08-04T10:16:53.873Z,150910.34
2022-08-04T10:19:26.916Z,150968.22
2022-08-04T10:22:29.454Z,150949.75
2022-08-04T10:26:05.073Z,150964.50
2022-08-04T10:28:15.409Z,150925.09
2022-08-04T10:30:49.707Z,151075.38
2022-08-04T10:33:25.824Z,151097.53
2022-08-04T10:36:04.543Z,151097.53
2022-08-04T10:38:45.695Z,151178.81
2022-08-04T10:41:25.121Z,151099.97
2022-08-04T10:44:23.446Z,151178.81
2022-08-04T10:47:01.638Z,151181.31
2022-08-04T10:49:37.174Z,151180.03
2022-08-04T10:52:22.755Z,151159.13
2022-08-04T10:55:01.799Z,151178.81
2022-08-04T10:57:36.010Z,151186.22
2022-08-04T11:00:11.635Z,151122.13
2022-08-04T11:03:12.751Z,151210.84
2022-08-04T11:05:46.679Z,151239.16
2022-08-04T11:08:27.040Z,151154.22
2022-08-04T11:11:05.636Z,151225.63
2022-08-04T11:13:45.052Z,151246.56
2022-08-04T11:16:20.952Z,151221.91
2022-08-04T11:18:50.070Z,151282.34
2022-08-04T11:21:25.457Z,151218.25
2022-08-04T11:24:19.453Z,151324.22
2022-08-04T11:27:02.082Z,151388.25
2022-08-04T11:29:45.748Z,151304.47
2022-08-04T11:32:19.899Z,151341.44
2022-08-04T11:34:52.784Z,151314.34
2022-08-04T11:37:27.628Z,151357.47
2022-08-04T11:40:03.977Z,151335.28
2022-08-04T11:42:37.720Z,151329.16
2022-08-04T11:45:13.187Z,151447.44
2022-08-04T11:47:48.181Z,151414.19
2022-08-04T11:50:27.696Z,151324.22
2022-08-04T11:52:58.171Z,151346.34
2022-08-04T11:55:27.884Z,151346.34
2022-08-04T11:57:55.765Z,151324.22
2022-08-04T12:00:25.867Z,151319.31
2022-08-04T12:03:08.851Z,151403.09
2022-08-04T12:06:00.998Z,151433.88
2022-08-04T12:09:05.530Z,151459.78
2022-08-04T12:11:52.071Z,151337.78
2022-08-04T12:14:27.302Z,151346.34
2022-08-04T12:17:00.133Z,151322.97
2022-08-04T12:20:04.853Z,151415.41
2022-08-04T12:22:43.907Z,151378.41
2022-08-04T12:25:16.093Z,151422.81
2022-08-04T12:27:51.836Z,151496.75
2022-08-04T12:30:59.818Z,151452.34
2022-08-04T12:33:20.066Z,151420.31
2022-08-04T12:36:10.916Z,151484.41
2022-08-04T12:38:47.147Z,151459.78
2022-08-04T12:41:21.277Z,151457.28
2022-08-04T12:43:50.238Z,151574.44
2022-08-04T12:46:26.791Z,151605.19
2022-08-04T12:49:00.925Z,151694.03
2022-08-04T12:52:06.400Z,151712.53
2022-08-04T12:54:28.501Z,151649.63
2022-08-04T12:57:01.903Z,151658.28
2022-08-04T12:59:29.059Z,151643.50
2022-08-04T13:02:07.977Z,151661.97
2022-08-04T13:04:42.363Z,151610.13
2022-08-04T13:07:35.811Z,151600.28
2022-08-04T13:10:12.035Z,151613.84
2022-08-04T13:12:40.580Z,151642.22
2022-08-04T13:15:28.226Z,151597.84
2022-08-04T13:18:02.497Z,151660.72
2022-08-04T13:20:33.208Z,151615.09
2022-08-04T13:23:14.408Z,151549.75
2022-08-04T13:26:44.347Z,151428.94
2022-08-04T13:28:42.963Z,151446.22
2022-08-04T13:31:16.922Z,151462.22
2022-08-04T13:33:48.417Z,151332.81
2022-08-04T13:36:17.353Z,151335.28
2022-08-04T13:38:58.252Z,151297.13
2022-08-04T13:41:31.103Z,151233.03
2022-08-04T13:44:19.497Z,151224.41
2022-08-04T13:46:51.957Z,151250.28
2022-08-04T13:49:48.616Z,151194.84
2022-08-04T13:52:10.774Z,151260.13
2022-08-04T13:54:42.623Z,151306.97
2022-08-04T13:57:33.119Z,151399.41
2022-08-04T14:00:06.191Z,151440.06
2022-08-04T14:02:40.543Z,151436.38
2022-08-04T14:05:27.513Z,151424.03
2022-08-04T14:08:15.108Z,151417.88
2022-08-04T14:10:42.656Z,151375.97
2022-08-04T14:13:09.865Z,151509.06
2022-08-04T14:16:01.257Z,151551.00
2022-08-04T14:18:31.984Z,151512.72
2022-08-04T14:21:10.582Z,151493.03
2022-08-04T14:23:47.182Z,151435.16
2022-08-04T14:26:18.576Z,151417.88
2022-08-04T14:29:28.517Z,151399.41
2022-08-04T14:31:33.109Z,151390.78
2022-08-04T14:34:05.020Z,151412.97
2022-08-04T14:37:09.103Z,151356.25
2022-08-04T14:39:42.024Z,151401.84
2022-08-04T14:42:54.597Z,151390.78
2022-08-04T14:45:34.855Z,151358.69
2022-08-04T14:48:07.361Z,151326.66
2022-08-04T14:50:37.205Z,151260.13
2022-08-04T14:53:11.711Z,151266.31
2022-08-04T14:55:42.380Z,151366.09
2022-08-04T14:58:35.740Z,151371.03
2022-08-04T15:01:12.138Z,151443.72
2022-08-04T15:03:52.171Z,151477.03
2022-08-04T15:06:26.166Z,151484.41
2022-08-04T15:08:57.046Z,151491.81
2022-08-04T15:11:25.057Z,151533.75
2022-08-04T15:13:53.142Z,151578.13
2022-08-04T15:16:21.696Z,151563.31
2022-08-04T15:18:49.517Z,151653.34
2022-08-04T15:21:17.630Z,151701.41
2022-08-04T15:23:44.695Z,151735.94
2022-08-04T15:26:15.773Z,151825.97
2022-08-04T15:28:50.074Z,151682.91
2022-08-04T15:32:06.962Z,151600.28
2022-08-04T15:34:08.945Z,151528.81
2022-08-04T15:36:39.371Z,151533.75
2022-08-04T15:39:18.658Z,151491.81
2022-08-04T15:42:20.506Z,151613.84
2022-08-04T15:44:50.879Z,151610.13
2022-08-04T15:47:21.600Z,151605.19
2022-08-04T15:50:11.611Z,151554.66
2022-08-04T15:53:01.009Z,151605.19
2022-08-04T15:55:38.450Z,151610.13
2022-08-04T15:58:11.984Z,151622.47
2022-08-04T16:00:48.491Z,151526.34
2022-08-04T16:03:58.080Z,151467.19
2022-08-04T16:06:20.536Z,151528.81
2022-08-04T16:08:47.529Z,151549.75
2022-08-04T16:11:31.839Z,151432.66
2022-08-04T16:13:59.332Z,151497.94
2022-08-04T16:16:31.566Z,151449.91
2022-08-04T16:19:05.456Z,151504.16
2022-08-04T16:21:46.824Z,151437.59
2022-08-04T16:24:21.823Z,151422.81
2022-08-04T16:27:00.707Z,151347.63
2022-08-04T16:29:30.833Z,151479.47
2022-08-04T16:32:13.274Z,151559.66
2022-08-04T16:35:05.698Z,151543.59
2022-08-04T16:37:35.046Z,151528.81
2022-08-04T16:40:35.162Z,151521.41
2022-08-04T16:43:13.502Z,151458.56
2022-08-04T16:45:45.252Z,151315.59
2022-08-04T16:48:14.475Z,151247.78
2022-08-04T16:50:56.163Z,151204.69
2022-08-04T16:54:02.700Z,151139.44
2022-08-04T16:56:15.044Z,151093.84
2022-08-04T16:58:54.167Z,151064.25
2022-08-04T17:01:33.419Z,151063.03
2022-08-04T17:04:07.061Z,151023.66
2022-08-04T17:06:40.706Z,151022.41
2022-08-04T17:09:16.992Z,150998.97
2022-08-04T17:11:46.058Z,150959.59
2022-08-04T17:14:13.588Z,150883.25
2022-08-04T17:16:42.949Z,150865.97
2022-08-04T17:19:24.481Z,150814.28
2022-08-04T17:22:02.964Z,150800.75
2022-08-04T17:24:33.347Z,150797.06
2022-08-04T17:27:00.579Z,150787.22
2022-08-04T17:29:42.812Z,150742.91
2022-08-04T17:32:20.929Z,150600.13
2022-08-04T17:34:50.407Z,150682.59
2022-08-04T17:37:40.086Z,150646.91
2022-08-04T17:40:10.013Z,150627.25
2022-08-04T17:42:39.895Z,150602.56
2022-08-04T17:48:03.573Z,150553.41
2022-08-04T17:50:35.744Z,150573.06
2022-08-04T17:53:12.577Z,150504.19
2022-08-04T17:55:42.115Z,150469.78
2022-08-04T17:58:14.033Z,150435.28
2022-08-04T18:03:53.148Z,150381.16
2022-08-04T18:06:22.791Z,150263.13
2022-08-04T18:08:57.364Z,150327.06
2022-08-04T18:11:28.716Z,150287.69
2022-08-04T18:14:08.954Z,150265.53
2022-08-04T18:16:45.346Z,150250.81
2022-08-04T18:19:15.459Z,150174.56
2022-08-04T18:21:46.971Z,150174.56
2022-08-04T18:24:35.811Z,150119.28
2022-08-04T18:27:23.787Z,150135.22
2022-08-04T18:32:56.392Z,150120.50
2022-08-04T18:36:31.331Z,150099.59
2022-08-04T18:38:22.588Z,150110.66
2022-08-04T18:40:54.339Z,150115.59
2022-08-04T18:43:28.599Z,150092.25
2022-08-04T18:46:12.481Z,150083.63
2022-08-04T18:48:42.258Z,150090.97
2022-08-04T18:51:23.497Z,150071.31
2022-08-04T18:53:59.082Z,150097.16
2022-08-04T18:59:15.365Z,150083.63
2022-08-04T19:02:13.303Z,150063.97
2022-08-04T19:04:36.775Z,150061.50
2022-08-04T19:07:29.652Z,150068.91
2022-08-04T19:09:57.247Z,150051.69
2022-08-04T19:12:27.373Z,150044.28
2022-08-04T19:14:58.705Z,150014.78
2022-08-04T19:17:52.525Z,150012.28
2022-08-04T19:20:25.613Z,149987.75
2022-08-04T19:24:31.545Z,149976.69
2022-08-04T19:25:59.304Z,149950.88
2022-08-04T19:28:34.168Z,149942.28
2022-08-04T19:31:07.139Z,149980.34
2022-08-04T19:33:55.947Z,149968.09
2022-08-04T19:36:28.020Z,149979.13
2022-08-04T19:38:57.922Z,149958.28
2022-08-04T19:41:26.520Z,149948.44
2022-08-04T19:43:54.873Z,149957.00
2022-08-04T19:46:24.993Z,149933.69
2022-08-04T19:48:59.916Z,149909.13
2022-08-04T19:51:29.902Z,149901.72
2022-08-04T19:54:02.875Z,149852.59
2022-08-04T19:56:40.909Z,149863.63
2022-08-04T19:59:11.381Z,149754.31
2022-08-04T20:01:44.638Z,149823.09
2022-08-04T20:04:13.845Z,149805.94
2022-08-04T20:06:41.333Z,149824.34
2022-08-04T20:09:25.098Z,149778.91
2022-08-04T20:11:55.702Z,149801.00
2022-08-04T20:14:31.521Z,149761.69
2022-08-04T20:17:02.089Z,149814.47
2022-08-04T20:19:30.559Z,149732.19
2022-08-04T20:21:58.219Z,149798.53
2022-08-04T20:27:15.996Z,149737.16
2022-08-04T20:29:49.453Z,149743.28
2022-08-04T20:32:25.507Z,149739.59
2022-08-04T20:34:54.615Z,149742.06
2022-08-04T20:37:23.755Z,149686.75
2022-08-04T20:39:58.625Z,149712.53
2022-08-04T20:42:34.125Z,149690.47
2022-08-04T20:45:02.259Z,149678.16
2022-08-04T20:47:35.403Z,149582.41
2022-08-04T20:50:08.811Z,149614.31
2022-08-04T20:52:37.658Z,149588.53
2022-08-04T20:55:06.196Z,149582.41
2022-08-04T20:57:48.436Z,149552.91
2022-08-04T21:00:29.789Z,149572.53
2022-08-04T21:03:00.350Z,149525.91
2022-08-04T21:05:27.909Z,149514.84
2022-08-04T21:07:57.055Z,149538.16
2022-08-04T21:10:25.675Z,149521.00
2022-08-04T21:12:53.852Z,149513.63
2022-08-04T21:15:25.564Z,149498.91
2022-08-04T21:17:58.042Z,149501.38
2022-08-04T21:23:18.087Z,149462.09
2022-08-04T21:25:49.995Z,149435.09
2022-08-04T21:28:20.362Z,149446.16
2022-08-04T21:30:54.052Z,149417.91
2022-08-04T21:33:23.782Z,149383.50
2022-08-04T21:35:54.172Z,149395.81
2022-08-04T21:38:27.969Z,149385.94
2022-08-04T21:40:57.812Z,149322.19
2022-08-04T21:43:28.506Z,149363.91
2022-08-04T21:45:56.945Z,149349.13
2022-08-04T21:48:32.074Z,149361.41
2022-08-04T21:51:56.919Z,149329.53
2022-08-04T21:54:05.879Z,149346.72
2022-08-04T21:56:34.128Z,149349.13
2022-08-04T21:59:07.158Z,149333.22
2022-08-04T22:01:51.093Z,149317.28
2022-08-04T22:04:19.969Z,149260.81
2022-08-04T22:06:52.526Z,149307.44
2022-08-04T22:09:21.991Z,149324.63
2022-08-04T22:11:51.587Z,149319.72
2022-08-04T22:14:29.683Z,149309.91
2022-08-04T22:17:02.140Z,149287.81
2022-08-04T22:19:49.857Z,149292.72
2022-08-04T22:22:25.288Z,149280.47
2022-08-04T22:25:00.411Z,149282.91
2022-08-04T22:27:47.539Z,149211.75
2022-08-04T22:30:23.518Z,149187.19
2022-08-04T22:32:50.890Z,149275.53
2022-08-04T22:35:36.267Z,149243.66
2022-08-04T22:38:24.182Z,149236.25
2022-08-04T22:41:02.172Z,149209.28
2022-08-04T22:43:31.780Z,149201.91
2022-08-04T22:46:03.911Z,149195.78
2022-08-04T22:48:32.899Z,149179.84
2022-08-04T22:51:00.962Z,149179.84
2022-08-04T22:53:30.214Z,149177.38
2022-08-04T22:56:10.290Z,149174.97
2022-08-04T22:58:44.798Z,149177.38
2022-08-04T23:01:14.998Z,149187.19
2022-08-04T23:03:51.219Z,149132.00
2022-08-04T23:06:28.363Z,149155.31
2022-08-04T23:08:57.475Z,149064.56
2022-08-04T23:11:24.545Z,149111.19
2022-08-04T23:14:02.854Z,149147.97
2022-08-04T23:16:29.999Z,149106.28
2022-08-04T23:18:57.049Z,149089.09
2022-08-04T23:21:24.940Z,149112.41
2022-08-04T23:24:01.016Z,149090.31
2022-08-04T23:26:31.547Z,149053.50
2022-08-04T23:28:58.716Z,149084.19
2022-08-04T23:31:40.399Z,149074.34
2022-08-04T23:34:09.151Z,149076.78
2022-08-04T23:36:39.555Z,149074.34
2022-08-04T23:39:07.300Z,149073.09
2022-08-04T23:41:53.633Z,149064.56
2022-08-04T23:44:25.670Z,149029.00
2022-08-04T23:47:00.289Z,149069.44
2022-08-04T23:49:44.271Z,149047.38
2022-08-04T23:52:28.368Z,149010.59
2022-08-04T23:54:58.825Z,149057.19
2022-08-04T23:57:30.883Z,149030.19
